createdAt,value
2022-12-17T00:01:06.273Z,12.10
2022-12-17T00:02:28.054Z,12.88
2022-12-17T00:03:49.580Z,12.63
2022-12-17T00:05:11.082Z,13.62
2022-12-17T00:06:32.911Z,14.16
2022-12-17T00:07:58.263Z,13.30
2022-12-17T00:09:24.276Z,13.73
2022-12-17T00:10:45.937Z,13.16
2022-12-17T00:13:29.688Z,11.13
2022-12-17T00:14:53.223Z,11.97
2022-12-17T00:16:15.653Z,11.82
2022-12-17T00:17:36.884Z,11.50
2022-12-17T00:18:58.238Z,12.45
2022-12-17T00:20:19.701Z,11.96
2022-12-17T00:21:41.218Z,12.79
2022-12-17T00:23:03.543Z,11.15
2022-12-17T00:24:25.026Z,11.74
2022-12-17T00:25:53.721Z,10.74
2022-12-17T00:27:16.268Z,11.04
2022-12-17T00:28:37.791Z,9.44
2022-12-17T00:29:59.377Z,9.31
2022-12-17T00:31:20.873Z,10.13
2022-12-17T00:32:42.239Z,9.29
2022-12-17T00:34:03.803Z,9.67
2022-12-17T00:35:25.182Z,10.08
2022-12-17T00:36:46.611Z,9.38
2022-12-17T00:38:16.171Z,9.06
2022-12-17T00:39:37.321Z,9.17
2022-12-17T00:40:59.145Z,8.71
2022-12-17T00:42:20.564Z,9.01
2022-12-17T00:43:43.895Z,9.06
2022-12-17T00:45:05.981Z,7.86
2022-12-17T00:46:27.613Z,8.71
2022-12-17T00:47:48.698Z,8.74
2022-12-17T00:49:10.059Z,8.63
2022-12-17T00:50:31.694Z,8.78
2022-12-17T00:51:53.195Z,9.60
2022-12-17T00:53:14.289Z,10.62
2022-12-17T00:54:36.306Z,10.58
2022-12-17T00:55:57.420Z,9.37
2022-12-17T00:57:19.093Z,9.63
2022-12-17T00:58:41.167Z,8.92
2022-12-17T01:00:03.995Z,8.53
2022-12-17T01:01:25.166Z,9.03
2022-12-17T01:02:46.361Z,9.21
2022-12-17T01:04:07.864Z,8.50
2022-12-17T01:05:29.161Z,8.44
2022-12-17T01:06:51.116Z,8.69
2022-12-17T01:08:13.741Z,8.29
2022-12-17T01:09:35.212Z,8.62
2022-12-17T01:11:00.673Z,8.63
2022-12-17T01:12:22.038Z,8.43
2022-12-17T01:13:43.593Z,8.33
2022-12-17T01:15:05.920Z,8.29
2022-12-17T01:16:27.728Z,7.91
2022-12-17T01:17:48.723Z,7.49
2022-12-17T01:19:09.759Z,7.51
2022-12-17T01:20:31.329Z,6.88
2022-12-17T01:21:52.679Z,6.28
2022-12-17T01:23:15.125Z,6.68
2022-12-17T01:24:37.684Z,6.63
2022-12-17T01:25:58.983Z,6.36
2022-12-17T01:27:20.517Z,7.23
2022-12-17T01:28:42.066Z,7.64
2022-12-17T01:30:03.829Z,7.23
2022-12-17T01:31:28.133Z,8.19
2022-12-17T01:32:48.606Z,7.46
2022-12-17T01:34:09.670Z,7.10
2022-12-17T01:35:31.142Z,6.81
2022-12-17T01:36:52.863Z,6.81
2022-12-17T01:38:17.124Z,6.35
2022-12-17T01:39:38.433Z,6.92
2022-12-17T01:41:00.304Z,6.95
2022-12-17T01:42:21.412Z,8.11
2022-12-17T01:43:42.627Z,10.09
2022-12-17T01:45:05.867Z,7.37
2022-12-17T01:46:28.815Z,5.16
2022-12-17T01:47:56.343Z,5.54
2022-12-17T01:49:17.833Z,5.45
2022-12-17T01:50:42.282Z,5.43
2022-12-17T01:52:03.669Z,5.02
2022-12-17T01:53:26.872Z,5.49
2022-12-17T01:56:10.469Z,4.53
2022-12-17T01:57:32.506Z,4.59
2022-12-17T01:58:53.795Z,4.86
2022-12-17T02:00:15.850Z,4.52
2022-12-17T02:01:38.638Z,5.09
2022-12-17T02:03:00.564Z,4.76
2022-12-17T02:05:24.798Z,5.71
2022-12-17T02:06:59.445Z,5.76
2022-12-17T02:08:42.436Z,6.01
2022-12-17T02:12:02.161Z,5.88
2022-12-17T02:14:43.219Z,5.34
2022-12-17T02:16:11.664Z,5.50
2022-12-17T02:17:41.272Z,5.52
2022-12-17T02:19:23.044Z,5.01
2022-12-17T02:20:48.728Z,4.94
2022-12-17T02:22:13.569Z,5.24
2022-12-17T02:23:38.659Z,5.16
2022-12-17T02:25:08.509Z,4.99
2022-12-17T02:26:39.854Z,4.91
2022-12-17T02:28:01.617Z,5.04
2022-12-17T02:29:23.738Z,5.48
2022-12-17T02:30:46.559Z,4.82
2022-12-17T02:32:08.483Z,5.00
2022-12-17T02:33:29.691Z,5.21
2022-12-17T02:34:51.344Z,5.33
2022-12-17T02:36:13.414Z,5.34
2022-12-17T02:37:42.471Z,5.46
2022-12-17T02:39:03.791Z,5.33
2022-12-17T02:40:25.576Z,5.54
2022-12-17T02:41:48.576Z,5.50
2022-12-17T02:43:10.224Z,5.07
2022-12-17T02:44:31.479Z,4.96
2022-12-17T02:45:52.681Z,5.26
2022-12-17T02:48:30.838Z,5.26
2022-12-17T02:49:52.899Z,5.51
2022-12-17T02:51:14.293Z,5.94
2022-12-17T02:52:36.621Z,5.83
2022-12-17T02:54:02.281Z,6.23
2022-12-17T02:55:23.581Z,5.63
2022-12-17T02:56:45.353Z,5.93
2022-12-17T02:58:07.169Z,5.56
2022-12-17T02:59:28.194Z,5.57
2022-12-17T03:00:50.221Z,5.43
2022-12-17T03:02:12.450Z,5.44
2022-12-17T03:03:34.403Z,5.30
2022-12-17T03:05:10.591Z,5.14
2022-12-17T03:06:20.794Z,5.91
2022-12-17T03:07:42.514Z,6.14
2022-12-17T03:09:03.659Z,6.03
2022-12-17T03:10:26.281Z,6.14
2022-12-17T03:11:47.897Z,5.87
2022-12-17T03:13:10.071Z,5.57
2022-12-17T03:14:31.638Z,5.26
2022-12-17T03:15:53.324Z,5.48
2022-12-17T03:17:15.338Z,4.95
2022-12-17T03:18:38.568Z,5.15
2022-12-17T03:19:59.966Z,5.82
2022-12-17T03:21:23.404Z,5.31
2022-12-17T03:24:06.701Z,5.28
2022-12-17T03:25:27.868Z,5.33
2022-12-17T03:26:49.134Z,5.11
2022-12-17T03:28:11.719Z,5.30
2022-12-17T03:29:32.757Z,4.19
2022-12-17T03:30:57.969Z,4.73
2022-12-17T03:32:20.225Z,4.15
2022-12-17T03:33:41.612Z,4.17
2022-12-17T03:35:02.959Z,4.13
2022-12-17T03:36:24.488Z,4.44
2022-12-17T03:37:46.806Z,4.53
2022-12-17T03:39:08.108Z,4.34
2022-12-17T03:40:29.631Z,4.57
2022-12-17T03:41:51.215Z,4.47
2022-12-17T03:43:12.762Z,4.53
2022-12-17T03:44:34.831Z,4.48
2022-12-17T03:45:56.583Z,4.46
2022-12-17T03:47:19.550Z,4.71
2022-12-17T03:48:41.181Z,4.98
2022-12-17T03:50:03.372Z,4.82
2022-12-17T03:51:24.398Z,4.83
2022-12-17T03:52:47.959Z,4.70
2022-12-17T03:54:09.280Z,4.81
2022-12-17T03:55:30.302Z,4.68
2022-12-17T03:56:52.015Z,4.76
2022-12-17T03:58:13.286Z,5.10
2022-12-17T03:59:34.666Z,5.11
2022-12-17T04:00:56.272Z,5.93
2022-12-17T04:02:17.617Z,6.19
2022-12-17T04:03:39.718Z,7.25
2022-12-17T04:05:01.737Z,8.86
2022-12-17T04:06:23.136Z,10.63
2022-12-17T04:07:44.336Z,10.17
2022-12-17T04:09:06.636Z,8.33
2022-12-17T04:10:27.903Z,12.49
2022-12-17T04:11:50.326Z,9.63
2022-12-17T04:13:12.645Z,10.11
2022-12-17T04:14:33.791Z,6.98
2022-12-17T04:15:55.214Z,7.58
2022-12-17T04:17:16.869Z,6.26
2022-12-17T04:18:37.971Z,5.96
2022-12-17T04:19:59.511Z,6.40
2022-12-17T04:21:20.923Z,6.27
2022-12-17T04:22:42.170Z,6.13
2022-12-17T04:24:03.323Z,5.74
2022-12-17T04:25:24.550Z,5.75
2022-12-17T04:26:46.365Z,6.28
2022-12-17T04:28:09.560Z,5.74
2022-12-17T04:29:31.043Z,5.80
2022-12-17T04:30:52.688Z,5.26
2022-12-17T04:32:14.047Z,5.03
2022-12-17T04:33:35.347Z,5.16
2022-12-17T04:34:57.044Z,4.89
2022-12-17T04:36:18.197Z,4.62
2022-12-17T04:37:39.570Z,5.32
2022-12-17T04:39:00.879Z,5.41
2022-12-17T04:40:22.979Z,6.03
2022-12-17T04:41:44.337Z,6.88
2022-12-17T04:43:10.313Z,6.87
2022-12-17T04:44:31.388Z,7.19
2022-12-17T04:45:52.932Z,7.89
2022-12-17T04:47:15.780Z,7.44
2022-12-17T04:48:36.870Z,7.98
2022-12-17T04:49:58.255Z,7.58
2022-12-17T04:51:19.589Z,7.74
2022-12-17T04:52:41.120Z,8.01
2022-12-17T04:54:02.643Z,6.33
2022-12-17T04:55:24.576Z,7.21
2022-12-17T04:56:46.022Z,5.37
2022-12-17T04:58:07.415Z,5.83
2022-12-17T04:59:28.929Z,6.09
2022-12-17T05:00:53.799Z,5.21
2022-12-17T05:02:16.309Z,5.30
2022-12-17T05:03:38.307Z,4.85
2022-12-17T05:05:00.036Z,4.80
2022-12-17T05:06:23.820Z,5.32
2022-12-17T05:07:45.452Z,5.58
2022-12-17T05:09:06.917Z,5.17
2022-12-17T05:10:29.270Z,4.76
2022-12-17T05:11:50.641Z,4.77
2022-12-17T05:13:12.141Z,5.16
2022-12-17T05:14:33.460Z,5.47
2022-12-17T05:15:55.876Z,5.42
2022-12-17T05:17:18.888Z,5.15
2022-12-17T05:18:42.016Z,4.97
2022-12-17T05:21:30.497Z,5.59
2022-12-17T05:22:49.137Z,4.87
2022-12-17T05:24:10.567Z,5.74
2022-12-17T05:25:31.988Z,4.93
2022-12-17T05:26:53.652Z,5.17
2022-12-17T05:28:15.337Z,4.99
2022-12-17T05:29:36.704Z,5.16
2022-12-17T05:31:01.460Z,5.57
2022-12-17T05:32:25.280Z,4.73
2022-12-17T05:33:46.378Z,4.98
2022-12-17T05:35:08.577Z,4.54
2022-12-17T05:36:29.788Z,5.14
2022-12-17T05:37:51.431Z,5.72
2022-12-17T05:39:12.806Z,5.87
2022-12-17T05:40:35.077Z,5.10
2022-12-17T05:41:56.378Z,5.43
2022-12-17T05:43:17.754Z,5.32
2022-12-17T05:44:39.555Z,5.38
2022-12-17T05:46:01.701Z,4.89
2022-12-17T05:48:36.762Z,4.78
2022-12-17T05:49:58.105Z,4.42
2022-12-17T05:51:19.497Z,4.23
2022-12-17T05:52:40.771Z,5.01
2022-12-17T05:54:02.268Z,4.56
2022-12-17T05:55:24.078Z,4.48
2022-12-17T05:56:45.731Z,4.10
2022-12-17T05:58:11.166Z,4.17
2022-12-17T05:59:32.927Z,4.04
2022-12-17T06:01:02.206Z,4.40
2022-12-17T06:02:23.720Z,3.71
2022-12-17T06:03:46.442Z,3.78
2022-12-17T06:05:08.377Z,3.63
2022-12-17T06:06:30.012Z,3.87
2022-12-17T06:07:51.255Z,3.26
2022-12-17T06:09:14.169Z,3.67
2022-12-17T06:10:35.438Z,3.08
2022-12-17T06:12:02.419Z,3.53
2022-12-17T06:13:20.147Z,3.43
2022-12-17T06:14:41.765Z,4.14
2022-12-17T06:16:04.354Z,3.46
2022-12-17T06:17:26.007Z,3.51
2022-12-17T06:18:47.257Z,3.34
2022-12-17T06:20:10.176Z,4.24
2022-12-17T06:21:31.471Z,4.64
2022-12-17T06:23:06.224Z,8.57
2022-12-17T06:24:27.484Z,13.09
2022-12-17T06:25:48.413Z,4.68
2022-12-17T06:27:10.984Z,4.03
2022-12-17T06:28:32.058Z,3.66
2022-12-17T06:29:53.332Z,3.00
2022-12-17T06:31:14.664Z,3.83
2022-12-17T06:32:35.904Z,3.25
2022-12-17T06:33:57.552Z,3.56
2022-12-17T06:35:19.258Z,3.29
2022-12-17T06:36:40.322Z,3.33
2022-12-17T06:38:08.098Z,3.35
2022-12-17T06:39:29.252Z,3.47
2022-12-17T06:40:51.074Z,3.97
2022-12-17T06:42:12.284Z,2.95
2022-12-17T06:43:33.688Z,3.13
2022-12-17T06:44:55.264Z,3.11
2022-12-17T06:46:17.200Z,3.23
2022-12-17T06:47:38.405Z,2.89
2022-12-17T06:48:59.448Z,2.98
2022-12-17T06:50:21.082Z,2.81
2022-12-17T06:51:42.425Z,2.66
2022-12-17T06:53:05.131Z,3.37
2022-12-17T06:54:26.235Z,3.94
2022-12-17T06:55:48.328Z,3.77
2022-12-17T06:57:09.765Z,3.86
2022-12-17T06:58:30.749Z,4.68
2022-12-17T06:59:51.766Z,5.66
2022-12-17T07:01:13.416Z,5.87
2022-12-17T07:02:35.191Z,5.49
2022-12-17T07:03:56.519Z,4.77
2022-12-17T07:05:17.427Z,5.48
2022-12-17T07:06:38.633Z,4.87
2022-12-17T07:07:59.795Z,5.91
2022-12-17T07:09:22.321Z,5.60
2022-12-17T07:10:43.699Z,5.14
2022-12-17T07:12:05.455Z,4.85
2022-12-17T07:13:28.635Z,5.33
2022-12-17T07:14:50.036Z,4.32
2022-12-17T07:16:11.553Z,4.12
2022-12-17T07:17:32.589Z,4.10
2022-12-17T07:18:54.163Z,4.03
2022-12-17T07:20:15.405Z,4.33
2022-12-17T07:21:36.694Z,5.67
2022-12-17T07:22:58.157Z,5.66
2022-12-17T07:24:20.364Z,4.09
2022-12-17T07:25:45.855Z,4.39
2022-12-17T07:27:05.573Z,5.15
2022-12-17T07:28:27.174Z,5.77
2022-12-17T07:29:49.989Z,5.61
2022-12-17T07:31:11.086Z,5.10
2022-12-17T07:32:32.851Z,5.81
2022-12-17T07:33:53.984Z,6.76
2022-12-17T07:35:15.470Z,7.24
2022-12-17T07:36:39.708Z,7.26
2022-12-17T07:38:01.581Z,6.77
2022-12-17T07:39:22.966Z,6.71
2022-12-17T07:40:44.624Z,7.02
2022-12-17T07:42:06.056Z,6.37
2022-12-17T07:43:29.493Z,6.32
2022-12-17T07:44:50.447Z,6.78
2022-12-17T07:46:12.656Z,5.25
2022-12-17T07:47:34.137Z,5.86
2022-12-17T07:48:55.988Z,5.34
2022-12-17T07:50:17.016Z,5.29
2022-12-17T07:51:38.424Z,5.69
2022-12-17T07:54:11.896Z,6.16
2022-12-17T07:55:33.287Z,5.52
2022-12-17T07:56:54.306Z,5.80
2022-12-17T07:58:15.961Z,5.69
2022-12-17T07:59:37.585Z,4.95
2022-12-17T08:00:59.540Z,5.01
2022-12-17T08:02:20.872Z,4.72
2022-12-17T08:03:42.739Z,5.01
2022-12-17T08:05:04.531Z,4.69
2022-12-17T08:06:25.721Z,4.53
2022-12-17T08:07:46.992Z,4.73
2022-12-17T08:09:08.431Z,4.82
2022-12-17T08:10:29.723Z,4.34
2022-12-17T08:11:51.088Z,4.75
2022-12-17T08:13:14.407Z,4.51
2022-12-17T08:14:35.430Z,4.94
2022-12-17T08:15:57.831Z,4.94
2022-12-17T08:17:19.384Z,4.71
2022-12-17T08:18:40.996Z,4.83
2022-12-17T08:20:02.957Z,4.84
2022-12-17T08:21:24.477Z,5.03
2022-12-17T08:22:45.716Z,5.57
2022-12-17T08:25:54.173Z,4.30
2022-12-17T08:27:15.531Z,6.84
2022-12-17T08:28:53.134Z,6.07
2022-12-17T08:30:01.015Z,4.85
2022-12-17T08:31:23.907Z,3.93
2022-12-17T08:32:45.024Z,3.29
2022-12-17T08:34:08.013Z,3.06
2022-12-17T08:35:29.626Z,3.46
2022-12-17T08:36:50.981Z,3.49
2022-12-17T08:38:12.178Z,3.69
2022-12-17T08:39:33.502Z,3.84
2022-12-17T08:40:55.001Z,4.02
2022-12-17T08:42:16.553Z,24.12
2022-12-17T08:43:38.734Z,11.13
2022-12-17T08:45:00.453Z,6.26
2022-12-17T08:46:22.528Z,5.67
2022-12-17T08:47:44.227Z,5.59
2022-12-17T08:49:05.554Z,6.23
2022-12-17T08:50:27.694Z,6.16
2022-12-17T08:51:48.957Z,6.96
2022-12-17T08:53:10.428Z,7.56
2022-12-17T08:54:32.053Z,8.32
2022-12-17T08:57:07.338Z,7.03
2022-12-17T08:58:28.653Z,6.58
2022-12-17T08:59:50.330Z,6.19
2022-12-17T09:01:11.951Z,6.24
2022-12-17T09:02:33.853Z,6.55
2022-12-17T09:03:56.302Z,5.97
2022-12-17T09:05:17.757Z,6.11
2022-12-17T09:06:39.577Z,5.47
2022-12-17T09:08:05.314Z,5.27
2022-12-17T09:09:26.655Z,5.17
2022-12-17T09:10:48.125Z,4.74
2022-12-17T09:12:11.462Z,4.22
2022-12-17T09:13:33.262Z,3.53
2022-12-17T09:14:55.066Z,4.64
2022-12-17T09:16:16.812Z,6.15
2022-12-17T09:17:38.408Z,4.90
2022-12-17T09:19:00.042Z,5.38
2022-12-17T09:20:26.187Z,3.78
2022-12-17T09:21:44.565Z,4.09
2022-12-17T09:23:06.088Z,4.06
2022-12-17T09:24:28.030Z,3.59
2022-12-17T09:25:58.372Z,3.72
2022-12-17T09:27:19.534Z,5.01
2022-12-17T09:28:42.433Z,4.70
2022-12-17T09:30:04.608Z,6.08
2022-12-17T09:31:25.960Z,3.91
2022-12-17T09:32:47.441Z,4.09
2022-12-17T09:34:10.734Z,4.26
2022-12-17T09:35:32.133Z,4.46
2022-12-17T09:36:53.542Z,4.50
2022-12-17T09:38:16.116Z,4.77
2022-12-17T09:39:37.211Z,4.92
2022-12-17T09:43:53.357Z,5.79
2022-12-17T09:45:27.818Z,8.07
2022-12-17T09:46:52.648Z,5.38
2022-12-17T09:49:33.722Z,7.86
2022-12-17T09:50:55.287Z,4.61
2022-12-17T09:52:24.493Z,5.61
2022-12-17T09:53:50.395Z,5.21
2022-12-17T09:56:42.527Z,5.14
2022-12-17T09:58:04.278Z,5.04
2022-12-17T09:59:31.314Z,4.94
2022-12-17T10:00:57.588Z,5.27
2022-12-17T10:02:22.409Z,5.88
2022-12-17T10:03:43.928Z,3.98
2022-12-17T10:05:07.587Z,3.77
2022-12-17T10:06:29.487Z,4.79
2022-12-17T10:07:51.000Z,3.96
2022-12-17T10:09:13.795Z,3.53
2022-12-17T10:10:35.052Z,4.22
2022-12-17T10:11:59.030Z,3.83
2022-12-17T10:13:21.757Z,3.60
2022-12-17T10:14:57.601Z,3.43
2022-12-17T10:16:32.155Z,2.72
2022-12-17T10:18:31.046Z,3.24
2022-12-17T10:20:24.429Z,3.68
2022-12-17T10:21:48.536Z,3.86
2022-12-17T10:23:30.011Z,3.55
2022-12-17T10:24:51.573Z,3.68
2022-12-17T10:26:25.790Z,3.73
2022-12-17T10:27:47.033Z,2.85
2022-12-17T10:29:14.206Z,2.72
2022-12-17T10:30:40.058Z,2.11
2022-12-17T10:32:19.140Z,2.24
2022-12-17T10:33:41.066Z,2.21
2022-12-17T10:35:25.051Z,2.09
2022-12-17T10:38:36.614Z,1.99
2022-12-17T10:40:01.932Z,2.11
2022-12-17T10:43:26.776Z,2.61
2022-12-17T10:44:48.110Z,2.13
2022-12-17T10:46:09.822Z,1.62
2022-12-17T10:47:32.958Z,2.62
2022-12-17T10:49:20.021Z,6.71
2022-12-17T10:50:42.482Z,3.28
2022-12-17T10:52:16.621Z,2.20
2022-12-17T10:53:38.474Z,3.16
2022-12-17T10:55:01.717Z,3.08
2022-12-17T10:56:25.072Z,2.89
2022-12-17T10:59:15.467Z,2.58
2022-12-17T11:00:38.303Z,2.25
2022-12-17T11:01:59.844Z,3.26
2022-12-17T11:03:48.284Z,3.39
2022-12-17T11:06:37.412Z,3.09
2022-12-17T11:07:57.133Z,2.85
2022-12-17T11:10:46.607Z,3.09
2022-12-17T11:12:08.883Z,3.66
2022-12-17T11:13:36.468Z,3.16
2022-12-17T11:15:01.719Z,2.96
2022-12-17T11:17:41.953Z,3.26
2022-12-17T11:19:10.172Z,2.47
2022-12-17T11:20:53.656Z,2.81
2022-12-17T11:23:41.403Z,2.73
2022-12-17T11:25:08.453Z,2.19
2022-12-17T11:26:31.980Z,2.53
2022-12-17T11:28:00.026Z,2.02
2022-12-17T11:29:21.588Z,2.06
2022-12-17T11:32:22.901Z,1.94
2022-12-17T11:35:27.395Z,1.54
2022-12-17T11:38:12.762Z,1.64
2022-12-17T11:39:41.073Z,1.62
2022-12-17T11:42:26.966Z,1.62
2022-12-17T11:44:18.924Z,1.91
2022-12-17T11:46:12.874Z,1.74
2022-12-17T11:48:05.717Z,1.86
2022-12-17T11:49:51.752Z,1.89
2022-12-17T11:53:45.057Z,2.29
2022-12-17T11:57:20.466Z,2.22
2022-12-17T11:59:07.636Z,2.89
2022-12-17T12:23:55.670Z,5.29
2022-12-17T12:27:42.191Z,5.94
2022-12-17T12:30:56.584Z,5.08
2022-12-17T12:32:33.819Z,3.36
2022-12-17T12:33:58.184Z,3.82
2022-12-17T12:35:22.085Z,3.87
2022-12-17T12:36:43.502Z,5.54
2022-12-17T12:38:04.802Z,3.04
2022-12-17T12:41:01.175Z,3.71
2022-12-17T12:43:41.853Z,3.17
2022-12-17T12:45:27.377Z,3.22
2022-12-17T12:48:13.988Z,3.90
2022-12-17T12:49:53.786Z,3.94
2022-12-17T12:51:33.593Z,3.19
2022-12-17T12:52:50.667Z,3.41
2022-12-17T12:56:59.773Z,3.81
2022-12-17T12:59:38.912Z,4.09
2022-12-17T13:01:01.662Z,3.64
2022-12-17T13:02:28.574Z,3.57
2022-12-17T13:03:52.165Z,3.61
2022-12-17T13:05:28.344Z,3.58
2022-12-17T13:06:53.990Z,3.87
2022-12-17T13:08:18.926Z,3.46
2022-12-17T13:09:49.014Z,3.90
2022-12-17T13:11:23.051Z,3.54
2022-12-17T13:12:45.048Z,3.43
2022-12-17T13:15:28.906Z,3.60
2022-12-17T13:16:52.657Z,3.87
2022-12-17T13:19:43.518Z,3.86
2022-12-17T13:21:17.753Z,3.71
2022-12-17T13:22:43.319Z,3.62
2022-12-17T13:24:14.197Z,3.93
2022-12-17T13:25:35.702Z,4.03
2022-12-17T13:26:57.518Z,3.94
2022-12-17T13:29:44.597Z,3.84
2022-12-17T13:32:34.222Z,4.11
2022-12-17T13:34:08.415Z,4.48
2022-12-17T13:35:36.388Z,4.43
2022-12-17T13:37:07.302Z,4.27
2022-12-17T13:38:50.298Z,4.52
2022-12-17T13:40:21.852Z,4.28
2022-12-17T13:41:43.459Z,4.38
2022-12-17T13:43:04.586Z,4.31
2022-12-17T13:44:29.267Z,4.72
2022-12-17T13:45:53.801Z,4.51
2022-12-17T13:48:40.373Z,5.43
2022-12-17T13:50:32.864Z,5.22
2022-12-17T13:51:28.297Z,4.92
2022-12-17T13:54:17.937Z,5.12
2022-12-17T13:55:39.421Z,6.02
2022-12-17T13:57:13.153Z,4.72
2022-12-17T13:58:34.675Z,5.26
2022-12-17T13:59:57.228Z,5.91
2022-12-17T14:01:18.630Z,5.91
2022-12-17T14:02:41.119Z,6.46
2022-12-17T14:04:06.978Z,6.13
2022-12-17T14:05:28.958Z,6.38
2022-12-17T14:06:51.136Z,6.47
2022-12-17T14:08:15.438Z,7.06
2022-12-17T14:09:39.663Z,8.25
2022-12-17T14:11:06.561Z,7.47
2022-12-17T14:12:25.365Z,7.70
2022-12-17T14:13:47.892Z,7.82
2022-12-17T14:16:31.906Z,7.49
2022-12-17T14:19:02.983Z,7.79
2022-12-17T14:20:25.644Z,7.13
2022-12-17T14:21:47.154Z,6.66
2022-12-17T14:24:32.364Z,7.42
2022-12-17T14:25:53.984Z,8.32
2022-12-17T14:27:24.807Z,8.00
2022-12-17T14:28:51.374Z,8.57
2022-12-17T14:31:35.580Z,9.81
2022-12-17T14:32:56.769Z,8.58
2022-12-17T14:34:18.152Z,8.29
2022-12-17T14:35:39.337Z,8.97
2022-12-17T14:37:00.925Z,9.04
2022-12-17T14:38:48.502Z,8.67
2022-12-17T14:39:47.291Z,8.64
2022-12-17T14:41:12.618Z,8.00
2022-12-17T14:42:34.743Z,9.16
2022-12-17T14:43:59.605Z,8.93
2022-12-17T14:46:51.514Z,9.28
2022-12-17T14:48:13.215Z,8.92
2022-12-17T14:49:34.999Z,8.41
2022-12-17T14:50:56.548Z,8.71
2022-12-17T14:52:37.193Z,8.70
2022-12-17T14:54:20.215Z,9.17
2022-12-17T14:55:56.990Z,8.96
2022-12-17T14:57:21.313Z,8.86
2022-12-17T14:58:45.504Z,9.15
2022-12-17T15:00:08.546Z,8.47
2022-12-17T15:02:52.129Z,8.78
2022-12-17T15:04:21.185Z,9.83
2022-12-17T15:05:42.658Z,9.62
2022-12-17T15:08:40.046Z,9.93
2022-12-17T15:10:17.709Z,9.88
2022-12-17T15:11:39.106Z,9.06
2022-12-17T15:13:09.659Z,9.69
2022-12-17T15:14:30.939Z,9.54
2022-12-17T15:15:52.351Z,10.43
2022-12-17T15:17:13.880Z,9.62
2022-12-17T15:18:36.014Z,10.02
2022-12-17T15:20:00.797Z,10.01
2022-12-17T15:21:22.781Z,10.66
2022-12-17T15:22:44.156Z,9.85
2022-12-17T15:24:06.511Z,10.20
2022-12-17T15:25:28.373Z,8.54
2022-12-17T15:26:49.638Z,10.42
2022-12-17T15:28:10.945Z,11.57
2022-12-17T15:29:32.443Z,10.07
2022-12-17T15:30:54.133Z,10.22
2022-12-17T15:32:19.214Z,10.92
2022-12-17T15:33:40.947Z,10.41
2022-12-17T15:35:03.421Z,9.76
2022-12-17T15:36:26.098Z,9.55
2022-12-17T15:37:47.252Z,9.72
2022-12-17T15:39:09.829Z,11.17
2022-12-17T15:40:31.459Z,10.02
2022-12-17T15:41:52.899Z,10.12
2022-12-17T15:43:14.278Z,9.57
2022-12-17T15:44:35.756Z,10.74
2022-12-17T15:45:59.803Z,9.97
2022-12-17T15:47:20.807Z,9.97
2022-12-17T15:48:48.159Z,10.01
2022-12-17T15:50:06.175Z,9.77
2022-12-17T15:51:27.526Z,9.78
2022-12-17T15:52:49.554Z,10.33
2022-12-17T15:54:11.003Z,11.92
2022-12-17T15:55:33.983Z,11.07
2022-12-17T15:56:55.900Z,9.87
2022-12-17T15:58:18.992Z,10.57
2022-12-17T15:59:40.443Z,10.19
2022-12-17T16:01:05.272Z,10.64
2022-12-17T16:02:26.416Z,13.68
2022-12-17T16:03:48.082Z,11.48
2022-12-17T16:05:10.615Z,11.32
2022-12-17T16:06:32.526Z,10.93
2022-12-17T16:07:54.118Z,11.69
2022-12-17T16:09:15.728Z,10.53
2022-12-17T16:10:37.429Z,11.09
2022-12-17T16:11:58.470Z,10.28
2022-12-17T16:13:21.084Z,10.96
2022-12-17T16:14:42.207Z,11.48
2022-12-17T16:16:04.534Z,11.42
2022-12-17T16:17:25.966Z,10.43
2022-12-17T16:18:47.045Z,10.81
2022-12-17T16:20:09.637Z,10.58
2022-12-17T16:21:31.095Z,10.85
2022-12-17T16:22:52.097Z,11.82
2022-12-17T16:24:13.127Z,12.17
2022-12-17T16:25:34.586Z,11.47
2022-12-17T16:26:59.447Z,12.12
2022-12-17T16:28:19.839Z,12.56
2022-12-17T16:29:41.499Z,11.93
2022-12-17T16:31:10.247Z,13.53
2022-12-17T16:32:36.167Z,13.66
2022-12-17T16:33:54.271Z,13.46
2022-12-17T16:35:15.859Z,11.48
2022-12-17T16:36:37.255Z,11.92
2022-12-17T16:37:58.375Z,12.02
2022-12-17T16:39:20.026Z,11.63
2022-12-17T16:40:41.383Z,11.41
2022-12-17T16:42:03.191Z,11.53
2022-12-17T16:43:24.661Z,11.59
2022-12-17T16:44:46.072Z,11.41
2022-12-17T16:46:27.224Z,11.02
2022-12-17T16:47:48.403Z,13.19
2022-12-17T16:49:18.252Z,11.88
2022-12-17T16:50:39.380Z,18.32
2022-12-17T16:52:00.452Z,12.36
2022-12-17T16:53:22.075Z,12.42
2022-12-17T16:54:43.708Z,12.28
2022-12-17T16:56:05.685Z,11.93
2022-12-17T16:57:26.652Z,12.84
2022-12-17T16:58:49.159Z,12.11
2022-12-17T17:01:32.713Z,12.86
2022-12-17T17:02:54.740Z,12.07
2022-12-17T17:04:17.073Z,12.66
2022-12-17T17:05:38.702Z,11.04
2022-12-17T17:07:00.127Z,13.26
2022-12-17T17:08:21.106Z,12.63
2022-12-17T17:09:44.044Z,12.16
2022-12-17T17:11:14.136Z,13.41
2022-12-17T17:12:35.116Z,13.09
2022-12-17T17:13:56.730Z,12.98
2022-12-17T17:15:18.042Z,13.31
2022-12-17T17:16:39.838Z,12.73
2022-12-17T17:18:01.989Z,12.51
2022-12-17T17:19:24.405Z,10.96
2022-12-17T17:20:45.723Z,9.93
2022-12-17T17:22:06.992Z,12.23
2022-12-17T17:23:28.288Z,11.99
2022-12-17T17:24:49.517Z,12.17
2022-12-17T17:26:11.053Z,11.81
2022-12-17T17:27:32.395Z,12.17
2022-12-17T17:28:54.068Z,12.62
2022-12-17T17:30:15.521Z,10.95
2022-12-17T17:32:08.340Z,12.45
2022-12-17T17:32:59.917Z,12.18
2022-12-17T17:34:21.073Z,12.07
2022-12-17T17:35:42.588Z,11.41
2022-12-17T17:37:05.678Z,11.96
2022-12-17T17:38:26.988Z,12.21
2022-12-17T17:39:48.472Z,12.30
2022-12-17T17:41:11.473Z,12.57
2022-12-17T17:43:59.772Z,12.02
2022-12-17T17:45:20.748Z,12.72
2022-12-17T17:47:56.393Z,12.97
2022-12-17T17:49:18.020Z,12.87
2022-12-17T17:50:39.714Z,12.47
2022-12-17T17:52:10.950Z,13.24
2022-12-17T17:53:25.671Z,12.99
2022-12-17T17:54:46.994Z,13.93
2022-12-17T17:56:14.317Z,12.31
2022-12-17T17:57:35.603Z,13.46
2022-12-17T17:59:05.653Z,13.93
2022-12-17T18:00:27.293Z,13.70
2022-12-17T18:01:49.321Z,14.80
2022-12-17T18:03:10.793Z,15.26
2022-12-17T18:04:37.383Z,14.92
2022-12-17T18:06:03.533Z,14.01
2022-12-17T18:07:29.030Z,14.26
2022-12-17T18:08:51.197Z,14.45
2022-12-17T18:10:15.253Z,15.52
2022-12-17T18:11:39.243Z,14.25
2022-12-17T18:13:02.043Z,13.65
2022-12-17T18:14:23.703Z,14.09
2022-12-17T18:15:47.238Z,14.26
2022-12-17T18:17:09.014Z,14.55
2022-12-17T18:18:31.096Z,14.72
2022-12-17T18:19:52.539Z,13.99
2022-12-17T18:21:16.719Z,13.87
2022-12-17T18:22:39.755Z,13.43
2022-12-17T18:24:03.448Z,14.24
2022-12-17T18:25:30.445Z,12.93
2022-12-17T18:26:51.678Z,12.83
2022-12-17T18:28:12.852Z,13.20
2022-12-17T18:29:34.071Z,12.84
2022-12-17T18:30:57.621Z,12.91
2022-12-17T18:32:19.190Z,12.34
2022-12-17T18:33:42.411Z,12.82
2022-12-17T18:35:05.024Z,14.44
2022-12-17T18:36:36.132Z,14.24
2022-12-17T18:37:57.706Z,12.98
2022-12-17T18:39:21.667Z,12.49
2022-12-17T18:40:44.921Z,18.19
2022-12-17T18:42:25.259Z,13.93
2022-12-17T18:43:46.357Z,13.06
2022-12-17T18:46:25.954Z,13.05
2022-12-17T18:47:49.734Z,12.68
2022-12-17T18:49:13.008Z,12.61
2022-12-17T18:50:35.677Z,11.96
2022-12-17T18:51:57.400Z,12.84
2022-12-17T18:53:19.173Z,9.42
2022-12-17T18:54:41.880Z,14.37
2022-12-17T18:57:25.995Z,12.35
2022-12-17T18:58:48.458Z,13.09
2022-12-17T19:00:13.016Z,13.12
2022-12-17T19:01:58.703Z,10.83
2022-12-17T19:03:22.400Z,11.88
2022-12-17T19:11:48.905Z,11.70
2022-12-17T19:15:01.108Z,11.80
2022-12-17T19:16:24.050Z,11.17
2022-12-17T19:17:46.458Z,11.19
2022-12-17T19:19:10.274Z,11.90
2022-12-17T19:20:31.887Z,11.27
2022-12-17T19:21:54.108Z,11.92
2022-12-17T19:23:15.763Z,10.78
2022-12-17T19:24:37.171Z,10.99
2022-12-17T19:26:11.273Z,10.39
2022-12-17T19:27:32.304Z,10.52
2022-12-17T19:28:54.229Z,10.82
2022-12-17T19:30:16.012Z,10.71
2022-12-17T19:31:37.590Z,10.48
2022-12-17T19:32:58.992Z,11.62
2022-12-17T19:34:20.611Z,11.40
2022-12-17T19:35:42.112Z,10.99
2022-12-17T19:37:03.793Z,12.08
2022-12-17T19:38:25.279Z,11.91
2022-12-17T19:39:46.714Z,11.58
2022-12-17T19:41:13.778Z,10.50
2022-12-17T19:42:37.355Z,11.23
2022-12-17T19:44:00.811Z,10.69
2022-12-17T19:45:22.094Z,11.54
2022-12-17T19:46:44.789Z,11.14
2022-12-17T19:48:05.831Z,10.17
2022-12-17T19:49:29.445Z,11.53
2022-12-17T19:50:56.934Z,11.00
2022-12-17T19:52:18.316Z,10.97
2022-12-17T19:53:40.444Z,12.16
2022-12-17T19:55:02.038Z,12.79
2022-12-17T19:56:25.196Z,11.32
2022-12-17T19:57:46.481Z,11.87
2022-12-17T19:59:10.458Z,11.12
2022-12-17T20:00:31.608Z,11.14
2022-12-17T20:01:54.010Z,10.89
2022-12-17T20:03:15.613Z,10.98
2022-12-17T20:04:36.897Z,11.08
2022-12-17T20:05:58.063Z,11.07
2022-12-17T20:07:19.367Z,10.87
2022-12-17T20:08:41.434Z,11.24
2022-12-17T20:10:03.378Z,9.22
2022-12-17T20:11:24.997Z,11.77
2022-12-17T20:12:46.309Z,10.86
2022-12-17T20:14:15.098Z,11.29